• Join FlightAware (Why Join?)
  • Login
  • US Flag 
09:29PM EST


 

Airport Tracker/Info


-or-


 

Live Flight TrackerFlight Track Log ✈ EJA929 ✈ 21-Feb-2014 ✈ KFOD - KBCT

Flight Track Log - Related Links

Times and Time Zones

All times are in EST time to prevent confusion due to time zone crossing. See the EJA929 flight status page for this flight to view local times or setup timezone preferences in your user account.

Time Position Orientation Groundspeed Altitude Reporting Facility
EST Latitude Longitude Course Direction KTS MPH feet Rate Location/Type
03:57PM 42.3589 -94.1533 158° South 294 338 10,400  Level Minneapolis Center
03:58PM 42.4891 -94.1559 157° South  Level FlightAware Approximate
03:58PM 42.2717 -94.1050 158° South 341 392 11,900  Level Minneapolis Center
03:59PM 42.3679 -94.0923 160° South  Level FlightAware Approximate
03:59PM 42.1847 -94.0564 157° South 371 427 14,000  Level Minneapolis Center
04:00PM 42.2482 -94.0407 160° South  Level FlightAware Approximate
04:00PM 42.0633 -93.9911 158° South 386 444 16,700  Level Minneapolis Center
04:01PM 42.1123 -94.0179 158° South  Level FlightAware Approximate
04:01PM 41.9614 -93.9336 157° South 395 455 19,000  Level Minneapolis Center
04:02PM 41.8544 -93.8750 158° South 408 470 21,400 2,160 Climbing Minneapolis Center
04:03PM 41.7411 -93.8106 157° South 416 479 23,500 1,920 Climbing Minneapolis Center
04:04PM 41.6489 -93.6906 136° Southeast 465 535 25,400 1,740 Climbing Minneapolis Center
04:05PM 41.5592 -93.5603 133° Southeast 477 549 27,100 1,680 Climbing Minneapolis Center
04:06PM 41.4644 -93.4281 134° Southeast 486 559 28,900 1,620 Climbing Minneapolis Center
04:07PM 41.3669 -93.2908 133° Southeast 497 572 30,500 1,500 Climbing Minneapolis Center
04:08PM 41.2667 -93.1497 133° Southeast 511 588 32,100 1,080 Climbing Minneapolis Center
04:09PM 41.1228 -92.9433 133° Southeast 541 623 33,000 720 Climbing Chicago Center
04:10PM 41.0136 -92.7906 133° Southeast 567 652 33,800 1,560 Climbing Chicago Center
04:11PM 40.9094 -92.6467 134° Southeast 547 629 36,300 1,980 Climbing Chicago Center
04:12PM 40.8133 -92.5131 134° Southeast 509 586 37,900 1,260 Climbing Chicago Center
04:13PM 40.7150 -92.3808 134° Southeast 505 581 39,000 660 Climbing Chicago Center
04:14PM 40.6178 -92.2481 134° Southeast 502 578 39,300 480 Climbing Chicago Center
04:15PM 40.5381 -92.1375 133° Southeast 506 582 39,900 900 Climbing Kansas City Center
04:16PM 40.4400 -92.0056 134° Southeast 507 583 41,000 480 Climbing Kansas City Center
04:17PM 40.3217 -91.8469 134° Southeast 506 582 41,000  Level Kansas City Center
04:18PM 40.2211 -91.7119 134° Southeast 512 589 41,000  Level Kansas City Center
04:19PM 40.1194 -91.5744 134° Southeast 521 600 41,000  Level Kansas City Center
04:20PM 40.0158 -91.4381 135° Southeast 527 606 41,000  Level Kansas City Center
04:21PM 39.9108 -91.3003 135° Southeast 534 615 41,000  Level Kansas City Center
04:22PM 39.8081 -91.1622 134° Southeast 534 615 41,000  Level Kansas City Center
04:23PM 39.6911 -91.0136 136° Southeast 539 620 41,000  Level Kansas City Center
04:24PM 39.5856 -90.8744 135° Southeast 539 620 41,000  Level Kansas City Center
04:26PM 39.4581 -90.7072 135° Southeast 540 621 41,000  Level Kansas City Center
04:27PM 39.3506 -90.5683 135° Southeast 541 623 41,000  Level Kansas City Center
04:28PM 39.2428 -90.4297 135° Southeast 544 626 41,000  Level Kansas City Center
04:29PM 39.1333 -90.2908 135° Southeast 545 627 41,000  Level Kansas City Center
04:30PM 39.0242 -90.1517 135° Southeast 545 627 41,000  Level Kansas City Center
04:31PM 38.9122 -90.0114 136° Southeast 545 627 41,000  Level Kansas City Center
04:32PM 38.8042 -89.8728 135° Southeast 546 628 41,000  Level Kansas City Center
04:33PM 38.6936 -89.7336 135° Southeast 550 633 41,000  Level Kansas City Center
04:34PM 38.5628 -89.5703 136° Southeast 548 631 41,000  Level Kansas City Center
04:35PM 38.4517 -89.4322 136° Southeast 551 634 41,000  Level Kansas City Center
04:36PM 38.3414 -89.2958 136° Southeast 552 635 41,000  Level Kansas City Center
04:37PM 38.2303 -89.1592 136° Southeast 552 635 41,000 -60 Level Kansas City Center
04:38PM 38.1200 -89.0231 136° Southeast 553 636 40,900 -600 Descending Kansas City Center
04:39PM 38.0067 -88.8847 136° Southeast 559 643 39,800 -960 Descending Kansas City Center
04:40PM 37.8731 -88.7231 136° Southeast 560 644 39,000 -420 Descending Kansas City Center
04:41PM 37.7600 -88.5839 136° Southeast 551 634 39,000  Level Kansas City Center
04:42PM 37.6489 -88.4508 137° Southeast 551 634 39,000  Level Kansas City Center
04:43PM 37.5375 -88.3164 136° Southeast 551 634 39,000  Level Kansas City Center
04:44PM 37.4281 -88.1872 137° Southeast 551 634 39,000  Level Kansas City Center
04:46PM 37.2572 -87.9847 137° Southeast 541 623 39,000  Level Memphis Center
04:47PM 37.1458 -87.8528 137° Southeast 544 626 39,000  Level Memphis Center
04:48PM 37.0347 -87.7197 136° Southeast 547 629 39,000  Level Memphis Center
04:49PM 36.9211 -87.5872 137° Southeast 551 634 39,000  Level Memphis Center
04:50PM 36.8067 -87.4556 137° Southeast 554 638 39,000  Level Memphis Center
04:51PM 36.6733 -87.3006 137° Southeast 557 641 39,000  Level Memphis Center
04:52PM 36.5583 -87.1667 137° Southeast 560 644 39,000  Level Memphis Center
04:53PM 36.4444 -87.0350 137° Southeast 558 642 39,000  Level Memphis Center
04:54PM 36.3208 -86.8942 137° Southeast 558 642 39,000  Level Memphis Center
04:55PM 36.2014 -86.7589 138° Southeast 562 647 39,000  Level Memphis Center
04:56PM 36.0733 -86.6525 146° Southeast 549 632 39,000  Level Memphis Center
04:57PM 35.9342 -86.5833 158° South 536 617 39,000  Level Memphis Center
04:58PM 35.7956 -86.5156 158° South 532 612 39,000  Level Memphis Center
04:59PM 35.6575 -86.4475 158° South 530 610 39,000  Level Memphis Center
05:00PM 35.5197 -86.3800 158° South 529 609 39,000  Level Memphis Center
05:01PM 35.3244 -86.2864 159° South 525 604 39,000  Level Atlanta Center
05:02PM 35.1897 -86.2219 159° South 530 610 39,000  Level Atlanta Center
05:03PM 35.0556 -86.1522 157° South 523 602 39,000  Level Atlanta Center
05:04PM 34.9311 -86.0986 161° South 528 608 39,000  Level Atlanta Center
05:05PM 34.7822 -86.0189 156° South 528 608 39,000  Level Atlanta Center
05:06PM 34.6433 -85.9525 159° South 533 613 39,000  Level Atlanta Center
05:07PM 34.5047 -85.8889 159° South 533 613 39,000  Level Atlanta Center
05:08PM 34.3636 -85.8206 158° South 533 613 39,000  Level Atlanta Center
05:09PM 34.2311 -85.7597 159° South 525 604 39,000  Level Atlanta Center
05:10PM 34.0942 -85.6944 158° South 525 604 39,000  Level Atlanta Center
05:11PM 33.9572 -85.6317 159° South 530 610 39,000  Level Atlanta Center
05:12PM 33.8347 -85.5744 159° South 525 604 39,000  Level Atlanta Center
05:13PM 33.6958 -85.5094 159° South 531 611 39,000  Level Atlanta Center
05:14PM 33.5586 -85.4447 159° South 531 611 39,000  Level Atlanta Center
05:15PM 33.4194 -85.3828 160° South 525 604 39,000  Level Atlanta Center
05:16PM 33.2803 -85.3186 159° South 530 610 39,000  Level Atlanta Center
05:17PM 33.1453 -85.2569 159° South 523 602 39,000  Level Atlanta Center
05:18PM 32.9958 -85.1831 157° South 529 609 39,000  Level Atlanta Center
05:19PM 32.8708 -85.1517 168° South 529 609 39,000  Level Atlanta Center
05:20PM 32.7169 -85.0906 162° South 513 590 39,000  Level Atlanta Center
05:21PM 32.5753 -85.0422 164° South 519 597 39,000  Level Atlanta Center
05:22PM 32.4442 -84.9989 164° South 512 589 39,000  Level Atlanta Center
05:23PM 32.3089 -84.9531 164° South 512 589 39,000  Level Atlanta Center
05:24PM 32.1839 -84.9150 166° South 512 589 39,000  Level Atlanta Center
05:28PM 31.6792 -84.7381 163° South 513 590 39,000  Level Jacksonville Center
05:29PM 31.5508 -84.6503 150° Southeast 513 590 39,000  Level Jacksonville Center
05:30PM 31.4228 -84.5628 150° Southeast 523 602 39,000  Level Jacksonville Center
05:31PM 31.2986 -84.4753 149° Southeast 528 608 39,000  Level Jacksonville Center
05:32PM 31.1556 -84.3758 149° Southeast 536 617 39,000  Level Jacksonville Center
05:33PM 31.0292 -84.2889 149° Southeast 536 617 39,000  Level Jacksonville Center
05:34PM 30.9028 -84.2025 150° Southeast 536 617 39,000  Level Jacksonville Center
05:35PM 30.7742 -84.1161 150° Southeast 531 611 39,000  Level Jacksonville Center
05:36PM 30.6478 -84.0297 150° Southeast 531 611 39,000  Level Jacksonville Center
05:37PM 30.5231 -83.9439 149° Southeast 526 605 39,000  Level Jacksonville Center
05:38PM 30.3986 -83.8583 149° Southeast 521 600 39,000  Level Jacksonville Center
05:39PM 30.2739 -83.7753 150° Southeast 521 600 39,000  Level Jacksonville Center
05:40PM 30.1450 -83.6900 150° Southeast 526 605 39,000  Level Jacksonville Center
05:41PM 30.0161 -83.6025 150° Southeast 526 605 39,000  Level Jacksonville Center
05:42PM 29.8892 -83.5203 151° Southeast 526 605 39,000  Level Jacksonville Center
05:43PM 29.7725 -83.4428 150° Southeast 526 605 39,000  Level Jacksonville Center
05:44PM 29.6456 -83.3586 150° Southeast 526 605 39,000  Level Jacksonville Center
05:45PM 29.5164 -83.2719 150° Southeast 526 605 39,000  Level Jacksonville Center
05:46PM 29.3853 -83.1881 151° Southeast 526 605 39,000  Level Jacksonville Center
05:47PM 29.2581 -83.1044 150° Southeast 526 605 39,000  Level Jacksonville Center
05:48PM 29.1328 -83.0186 149° Southeast 526 605 39,000  Level Jacksonville Center
05:50PM 28.8742 -82.8522 151° Southeast 526 605 39,000  Level Jacksonville Center
05:51PM 28.7508 -82.7717 150° Southeast 521 600 39,000  Level Jacksonville Center
05:52PM 28.6172 -82.6844 150° Southeast 515 593 39,000 -60 Level Jacksonville Center
05:53PM 28.4919 -82.6044 151° Southeast 515 593 38,900  Descending Jacksonville Center
05:54PM 28.3789 -82.5317 150° Southeast 497 572 39,000 -600 Climbing Jacksonville Center
05:56PM 28.1503 -82.3897 151° Southeast 498 573 37,200 -1,380 Descending Miami Center
05:57PM 28.0403 -82.3186 150° Southeast 478 550 35,000 -1,140 Descending Miami Center
05:58PM 27.9272 -82.2731 160° South 457 526 35,000 -60 Level Miami Center
05:59PM 27.8036 -82.2319 164° South 452 520 34,900 -780 Descending Miami Center
06:00PM 27.6864 -82.1867 161° South 452 520 33,500 -1,680 Descending Miami Center
06:01PM 27.5731 -82.1486 163° South 457 526 31,600 -1,860 Descending Miami Center
06:02PM 27.4472 -82.1078 164° South 462 532 29,800 -2,040 Descending Miami Center
06:03PM 27.3053 -82.0569 162° South 478 550 27,600 -2,100 Descending Miami Center
06:04PM 27.1753 -82.0136 163° South 492 566 25,700 -1,800 Descending Miami Center
06:05PM 27.0433 -81.9681 163° South 492 566 24,000 -1,680 Descending Miami Center
06:06PM 26.9392 -81.9008 150° Southeast 492 566 22,400 -2,100 Descending Miami Center
06:07PM 26.8336 -81.8147 144° Southeast 476 548 19,900 -1,800 Descending Miami Center
06:08PM 26.7444 -81.7342 141° Southeast 446 513 18,900 -480 Descending Miami Center
06:09PM 26.6964 -81.6114 114° Southeast 392 451 19,000  Climbing Miami Center
06:10PM 26.7206 -81.5056 76° East 372 428 19,000  Level Miami Center
06:11PM 26.7453 -81.3903 76° East 372 428 19,000 -300 Level Miami Center
06:12PM 26.7739 -81.2703 75° East 364 419 18,400 -1,500 Descending Miami Center
06:13PM 26.8000 -81.1667 74° East 354 407 16,100 -2,160 Descending Miami Center
06:14PM 26.8178 -81.0603 79° East 347 399 14,100 -1,980 Descending Miami Center
06:15PM 26.8100 -80.9644 95° East 347 399 12,200 -1,920 Descending Miami Center
06:16PM 26.8047 -80.8550 93° East 336 387 10,300 -1,620 Descending Miami Center
06:17PM 26.7883 -80.7661 102° East 305 351 9,000 -1,200 Descending Miami Center
06:18PM 26.7250 -80.7106 142° Southeast 279 321 8,000 -1,020 Descending Miami Center
06:19PM 26.6617 -80.6619 146° Southeast 278 320 7,000 -540 Descending Miami Center
06:20PM 26.5981 -80.6133 146° Southeast 283 326 7,000 -480 Level Miami Center
06:21PM 26.5667 -80.5333 114° Southeast 267 307 6,100 -1,020 Descending Miami Center
06:22PM 26.5375 -80.4558 113° Southeast 267 307 5,000 -1,080 Descending Miami Center
06:23PM 26.5142 -80.3833 110° East 273 314 4,000 -540 Descending Miami Center
06:24PM 26.4997 -80.2900 100° East 273 314 4,000  Level Miami Center
06:25PM 26.4972 -80.2133 92° East 273 314 4,000  Level Miami Center
06:27PM 26.3785 -80.1077 180° South  Level Estimated
06:34PM 26.3785 -80.1077 180° South  Level Estimated
06:35PM 26.3785 -80.1077 180° South  Level Estimated
06:36PM 26.3785 -80.1077 180° South  Level Estimated
06:37PM 26.3785 -80.1077 180° South  Level Estimated
06:38PM 26.3785 -80.1077 180° South  Level Estimated